sensor_id;sensor_type;location;lat;lon;timestamp;P1;durP1;ratioP1;P2;durP2;ratioP2
5339;SDS011;2692;48.848;8.924;2023-04-25T00:01:58;1.43;;;0.73;;
5339;SDS011;2692;48.848;8.924;2023-04-25T00:04:24;2.40;;;0.97;;
5339;SDS011;2692;48.848;8.924;2023-04-25T00:06:50;2.07;;;0.93;;
5339;SDS011;2692;48.848;8.924;2023-04-25T00:09:17;1.90;;;1.10;;
5339;SDS011;2692;48.848;8.924;2023-04-25T00:11:42;1.30;;;0.90;;
5339;SDS011;2692;48.848;8.924;2023-04-25T00:14:07;1.50;;;0.73;;
5339;SDS011;2692;48.848;8.924;2023-04-25T00:16:33;1.83;;;1.23;;
5339;SDS011;2692;48.848;8.924;2023-04-25T00:19:00;1.50;;;0.43;;
5339;SDS011;2692;48.848;8.924;2023-04-25T00:21:26;1.00;;;0.50;;
5339;SDS011;2692;48.848;8.924;2023-04-25T00:23:53;1.60;;;0.80;;
5339;SDS011;2692;48.848;8.924;2023-04-25T00:26:18;1.73;;;0.80;;
5339;SDS011;2692;48.848;8.924;2023-04-25T00:28:43;1.67;;;0.90;;
5339;SDS011;2692;48.848;8.924;2023-04-25T00:31:09;1.00;;;0.60;;
5339;SDS011;2692;48.848;8.924;2023-04-25T00:33:34;5.93;;;1.20;;
5339;SDS011;2692;48.848;8.924;2023-04-25T00:35:59;1.00;;;0.70;;
5339;SDS011;2692;48.848;8.924;2023-04-25T00:38:25;1.60;;;1.00;;
5339;SDS011;2692;48.848;8.924;2023-04-25T00:40:50;2.10;;;0.90;;
5339;SDS011;2692;48.848;8.924;2023-04-25T00:43:15;1.17;;;0.60;;
5339;SDS011;2692;48.848;8.924;2023-04-25T00:45:41;3.33;;;1.10;;
5339;SDS011;2692;48.848;8.924;2023-04-25T00:48:07;1.37;;;0.87;;
5339;SDS011;2692;48.848;8.924;2023-04-25T00:50:33;0.97;;;0.57;;
5339;SDS011;2692;48.848;8.924;2023-04-25T00:52:59;1.97;;;0.80;;
5339;SDS011;2692;48.848;8.924;2023-04-25T00:55:25;1.77;;;0.87;;
5339;SDS011;2692;48.848;8.924;2023-04-25T00:57:50;3.50;;;1.07;;
5339;SDS011;2692;48.848;8.924;2023-04-25T01:00:16;2.17;;;0.70;;
5339;SDS011;2692;48.848;8.924;2023-04-25T01:02:42;1.33;;;0.60;;
5339;SDS011;2692;48.848;8.924;2023-04-25T01:05:09;2.17;;;1.00;;
5339;SDS011;2692;48.848;8.924;2023-04-25T01:07:35;1.83;;;0.90;;
5339;SDS011;2692;48.848;8.924;2023-04-25T01:10:00;1.20;;;0.80;;
5339;SDS011;2692;48.848;8.924;2023-04-25T01:12:26;2.43;;;1.30;;
5339;SDS011;2692;48.848;8.924;2023-04-25T01:14:51;1.30;;;0.70;;
5339;SDS011;2692;48.848;8.924;2023-04-25T01:17:17;1.60;;;1.00;;
5339;SDS011;2692;48.848;8.924;2023-04-25T01:19:43;1.80;;;0.80;;
5339;SDS011;2692;48.848;8.924;2023-04-25T01:22:08;1.70;;;1.10;;
5339;SDS011;2692;48.848;8.924;2023-04-25T01:24:35;1.83;;;0.80;;
5339;SDS011;2692;48.848;8.924;2023-04-25T01:27:00;1.70;;;0.90;;
5339;SDS011;2692;48.848;8.924;2023-04-25T01:29:27;1.30;;;0.70;;
5339;SDS011;2692;48.848;8.924;2023-04-25T01:31:52;1.57;;;0.70;;
5339;SDS011;2692;48.848;8.924;2023-04-25T01:34:18;1.57;;;0.77;;
5339;SDS011;2692;48.848;8.924;2023-04-25T01:36:44;2.20;;;0.63;;
5339;SDS011;2692;48.848;8.924;2023-04-25T01:39:09;3.90;;;0.80;;
5339;SDS011;2692;48.848;8.924;2023-04-25T01:41:35;1.67;;;0.77;;
5339;SDS011;2692;48.848;8.924;2023-04-25T01:44:00;0.90;;;0.40;;
5339;SDS011;2692;48.848;8.924;2023-04-25T01:46:27;1.00;;;0.53;;
5339;SDS011;2692;48.848;8.924;2023-04-25T01:48:52;1.87;;;1.00;;
5339;SDS011;2692;48.848;8.924;2023-04-25T01:51:18;2.60;;;0.80;;
5339;SDS011;2692;48.848;8.924;2023-04-25T01:53:43;1.10;;;0.50;;
5339;SDS011;2692;48.848;8.924;2023-04-25T01:56:09;2.53;;;1.00;;
5339;SDS011;2692;48.848;8.924;2023-04-25T01:58:34;1.27;;;0.70;;
5339;SDS011;2692;48.848;8.924;2023-04-25T02:01:00;1.93;;;0.80;;
5339;SDS011;2692;48.848;8.924;2023-04-25T02:03:25;2.23;;;0.87;;
5339;SDS011;2692;48.848;8.924;2023-04-25T02:05:50;1.80;;;1.00;;
5339;SDS011;2692;48.848;8.924;2023-04-25T02:08:16;1.20;;;0.50;;
5339;SDS011;2692;48.848;8.924;2023-04-25T02:10:41;1.00;;;0.63;;
5339;SDS011;2692;48.848;8.924;2023-04-25T02:13:07;0.90;;;0.40;;
5339;SDS011;2692;48.848;8.924;2023-04-25T02:15:32;1.30;;;0.70;;
5339;SDS011;2692;48.848;8.924;2023-04-25T02:17:57;1.50;;;0.70;;
5339;SDS011;2692;48.848;8.924;2023-04-25T02:20:25;2.03;;;0.73;;
5339;SDS011;2692;48.848;8.924;2023-04-25T02:22:50;0.90;;;0.50;;
5339;SDS011;2692;48.848;8.924;2023-04-25T02:25:16;1.93;;;0.90;;
5339;SDS011;2692;48.848;8.924;2023-04-25T02:27:44;1.63;;;0.60;;
5339;SDS011;2692;48.848;8.924;2023-04-25T02:30:10;2.87;;;1.10;;
5339;SDS011;2692;48.848;8.924;2023-04-25T02:32:36;1.20;;;0.83;;
5339;SDS011;2692;48.848;8.924;2023-04-25T02:35:01;3.13;;;1.07;;
5339;SDS011;2692;48.848;8.924;2023-04-25T02:37:30;1.60;;;0.50;;
5339;SDS011;2692;48.848;8.924;2023-04-25T02:39:55;0.90;;;0.47;;
5339;SDS011;2692;48.848;8.924;2023-04-25T02:42:21;1.40;;;0.70;;
5339;SDS011;2692;48.848;8.924;2023-04-25T02:44:46;1.07;;;0.40;;
5339;SDS011;2692;48.848;8.924;2023-04-25T02:47:11;2.00;;;1.30;;
5339;SDS011;2692;48.848;8.924;2023-04-25T02:49:37;1.00;;;0.60;;
5339;SDS011;2692;48.848;8.924;2023-04-25T02:52:02;3.17;;;0.90;;
5339;SDS011;2692;48.848;8.924;2023-04-25T02:54:27;1.37;;;0.53;;
5339;SDS011;2692;48.848;8.924;2023-04-25T02:56:52;2.00;;;1.33;;
5339;SDS011;2692;48.848;8.924;2023-04-25T02:59:18;1.80;;;1.13;;
5339;SDS011;2692;48.848;8.924;2023-04-25T03:01:43;6.20;;;1.33;;
5339;SDS011;2692;48.848;8.924;2023-04-25T03:04:08;1.83;;;1.00;;
5339;SDS011;2692;48.848;8.924;2023-04-25T03:06:34;1.30;;;0.60;;
5339;SDS011;2692;48.848;8.924;2023-04-25T03:08:59;3.20;;;1.30;;
5339;SDS011;2692;48.848;8.924;2023-04-25T03:11:25;1.40;;;0.93;;
5339;SDS011;2692;48.848;8.924;2023-04-25T03:13:50;1.17;;;0.57;;
5339;SDS011;2692;48.848;8.924;2023-04-25T03:16:15;2.33;;;1.00;;
5339;SDS011;2692;48.848;8.924;2023-04-25T03:18:41;2.40;;;1.37;;
5339;SDS011;2692;48.848;8.924;2023-04-25T03:21:06;1.83;;;0.97;;
5339;SDS011;2692;48.848;8.924;2023-04-25T03:23:31;1.73;;;1.07;;
5339;SDS011;2692;48.848;8.924;2023-04-25T03:25:56;2.17;;;1.40;;
5339;SDS011;2692;48.848;8.924;2023-04-25T03:28:22;2.23;;;1.30;;
5339;SDS011;2692;48.848;8.924;2023-04-25T03:30:47;2.10;;;1.00;;
5339;SDS011;2692;48.848;8.924;2023-04-25T03:33:12;3.90;;;1.40;;
5339;SDS011;2692;48.848;8.924;2023-04-25T03:35:38;3.00;;;1.27;;
5339;SDS011;2692;48.848;8.924;2023-04-25T03:38:03;2.00;;;1.23;;
5339;SDS011;2692;48.848;8.924;2023-04-25T03:40:28;2.50;;;1.17;;
5339;SDS011;2692;48.848;8.924;2023-04-25T03:42:53;3.73;;;1.70;;
5339;SDS011;2692;48.848;8.924;2023-04-25T03:45:19;1.30;;;0.77;;
5339;SDS011;2692;48.848;8.924;2023-04-25T03:47:44;4.93;;;2.20;;
5339;SDS011;2692;48.848;8.924;2023-04-25T03:50:09;1.30;;;0.70;;
5339;SDS011;2692;48.848;8.924;2023-04-25T03:52:35;3.53;;;1.20;;
5339;SDS011;2692;48.848;8.924;2023-04-25T03:55:00;2.20;;;1.27;;
5339;SDS011;2692;48.848;8.924;2023-04-25T03:57:25;3.57;;;1.70;;
5339;SDS011;2692;48.848;8.924;2023-04-25T03:59:51;1.70;;;0.87;;
5339;SDS011;2692;48.848;8.924;2023-04-25T04:02:17;3.73;;;1.03;;
5339;SDS011;2692;48.848;8.924;2023-04-25T04:04:42;5.63;;;1.30;;
5339;SDS011;2692;48.848;8.924;2023-04-25T04:07:09;2.30;;;1.40;;
5339;SDS011;2692;48.848;8.924;2023-04-25T04:09:35;1.40;;;0.93;;
5339;SDS011;2692;48.848;8.924;2023-04-25T04:12:00;1.43;;;0.87;;
5339;SDS011;2692;48.848;8.924;2023-04-25T04:14:26;2.70;;;1.33;;
5339;SDS011;2692;48.848;8.924;2023-04-25T04:16:51;1.50;;;0.90;;
5339;SDS011;2692;48.848;8.924;2023-04-25T04:19:17;2.60;;;1.40;;
5339;SDS011;2692;48.848;8.924;2023-04-25T04:21:42;1.47;;;0.63;;
5339;SDS011;2692;48.848;8.924;2023-04-25T04:24:08;1.20;;;0.80;;
5339;SDS011;2692;48.848;8.924;2023-04-25T04:26:33;2.00;;;1.37;;
5339;SDS011;2692;48.848;8.924;2023-04-25T04:28:59;2.70;;;1.37;;
5339;SDS011;2692;48.848;8.924;2023-04-25T04:31:25;1.63;;;1.10;;
5339;SDS011;2692;48.848;8.924;2023-04-25T04:33:50;1.23;;;0.80;;
5339;SDS011;2692;48.848;8.924;2023-04-25T04:36:16;2.20;;;1.40;;
5339;SDS011;2692;48.848;8.924;2023-04-25T04:38:44;3.67;;;1.53;;
5339;SDS011;2692;48.848;8.924;2023-04-25T04:41:10;3.83;;;1.73;;
5339;SDS011;2692;48.848;8.924;2023-04-25T04:43:35;2.60;;;1.67;;
5339;SDS011;2692;48.848;8.924;2023-04-25T04:46:01;3.27;;;1.43;;
5339;SDS011;2692;48.848;8.924;2023-04-25T04:48:28;3.70;;;2.40;;
5339;SDS011;2692;48.848;8.924;2023-04-25T04:50:53;4.60;;;1.77;;
5339;SDS011;2692;48.848;8.924;2023-04-25T04:53:19;1.73;;;1.20;;
5339;SDS011;2692;48.848;8.924;2023-04-25T04:55:44;2.90;;;1.10;;
5339;SDS011;2692;48.848;8.924;2023-04-25T04:58:09;2.73;;;0.97;;
5339;SDS011;2692;48.848;8.924;2023-04-25T05:00:34;5.63;;;1.13;;
5339;SDS011;2692;48.848;8.924;2023-04-25T05:03:00;1.30;;;0.70;;
5339;SDS011;2692;48.848;8.924;2023-04-25T05:05:25;1.37;;;0.77;;
5339;SDS011;2692;48.848;8.924;2023-04-25T05:07:51;1.60;;;1.10;;
5339;SDS011;2692;48.848;8.924;2023-04-25T05:10:16;3.73;;;1.50;;
5339;SDS011;2692;48.848;8.924;2023-04-25T05:12:42;1.37;;;0.93;;
5339;SDS011;2692;48.848;8.924;2023-04-25T05:15:07;1.30;;;0.90;;
5339;SDS011;2692;48.848;8.924;2023-04-25T05:17:33;2.50;;;1.17;;
5339;SDS011;2692;48.848;8.924;2023-04-25T05:19:58;5.47;;;1.57;;
5339;SDS011;2692;48.848;8.924;2023-04-25T05:22:24;1.50;;;1.10;;
5339;SDS011;2692;48.848;8.924;2023-04-25T05:24:49;4.03;;;1.00;;
5339;SDS011;2692;48.848;8.924;2023-04-25T05:27:16;1.27;;;0.83;;
5339;SDS011;2692;48.848;8.924;2023-04-25T05:29:42;2.03;;;1.27;;
5339;SDS011;2692;48.848;8.924;2023-04-25T05:32:08;3.00;;;1.27;;
5339;SDS011;2692;48.848;8.924;2023-04-25T05:34:34;1.03;;;0.70;;
5339;SDS011;2692;48.848;8.924;2023-04-25T05:36:59;5.83;;;1.03;;
5339;SDS011;2692;48.848;8.924;2023-04-25T05:39:25;2.80;;;1.13;;
5339;SDS011;2692;48.848;8.924;2023-04-25T05:41:51;6.60;;;1.60;;
5339;SDS011;2692;48.848;8.924;2023-04-25T05:44:16;1.57;;;1.00;;
5339;SDS011;2692;48.848;8.924;2023-04-25T05:46:41;2.27;;;1.27;;
5339;SDS011;2692;48.848;8.924;2023-04-25T05:49:07;9.13;;;1.60;;
5339;SDS011;2692;48.848;8.924;2023-04-25T05:51:32;1.80;;;1.00;;
5339;SDS011;2692;48.848;8.924;2023-04-25T05:53:57;1.50;;;0.90;;
5339;SDS011;2692;48.848;8.924;2023-04-25T05:56:22;1.50;;;0.80;;
5339;SDS011;2692;48.848;8.924;2023-04-25T05:58:48;6.90;;;1.80;;
5339;SDS011;2692;48.848;8.924;2023-04-25T06:01:13;1.37;;;0.83;;
5339;SDS011;2692;48.848;8.924;2023-04-25T06:03:39;1.97;;;1.20;;
5339;SDS011;2692;48.848;8.924;2023-04-25T06:06:07;1.83;;;1.03;;
5339;SDS011;2692;48.848;8.924;2023-04-25T06:08:32;2.50;;;1.33;;
5339;SDS011;2692;48.848;8.924;2023-04-25T06:10:58;2.90;;;1.27;;
5339;SDS011;2692;48.848;8.924;2023-04-25T06:13:23;11.77;;;1.00;;
5339;SDS011;2692;48.848;8.924;2023-04-25T06:15:48;1.30;;;1.00;;
5339;SDS011;2692;48.848;8.924;2023-04-25T06:18:14;2.53;;;1.53;;
5339;SDS011;2692;48.848;8.924;2023-04-25T06:20:39;2.47;;;1.53;;
5339;SDS011;2692;48.848;8.924;2023-04-25T06:23:04;1.50;;;1.00;;
5339;SDS011;2692;48.848;8.924;2023-04-25T06:25:30;1.80;;;1.00;;
5339;SDS011;2692;48.848;8.924;2023-04-25T06:27:55;3.53;;;1.27;;
5339;SDS011;2692;48.848;8.924;2023-04-25T06:30:20;1.10;;;0.80;;
5339;SDS011;2692;48.848;8.924;2023-04-25T06:32:49;1.30;;;0.80;;
5339;SDS011;2692;48.848;8.924;2023-04-25T06:35:15;3.87;;;0.97;;
5339;SDS011;2692;48.848;8.924;2023-04-25T06:37:40;5.47;;;2.27;;
5339;SDS011;2692;48.848;8.924;2023-04-25T06:40:05;2.60;;;1.40;;
5339;SDS011;2692;48.848;8.924;2023-04-25T06:42:31;2.57;;;2.20;;
5339;SDS011;2692;48.848;8.924;2023-04-25T06:44:56;3.77;;;1.80;;
5339;SDS011;2692;48.848;8.924;2023-04-25T06:47:21;1.93;;;1.47;;
5339;SDS011;2692;48.848;8.924;2023-04-25T06:49:47;2.17;;;1.10;;
5339;SDS011;2692;48.848;8.924;2023-04-25T06:52:12;3.80;;;1.23;;
5339;SDS011;2692;48.848;8.924;2023-04-25T06:54:37;1.97;;;0.80;;
5339;SDS011;2692;48.848;8.924;2023-04-25T06:57:03;1.30;;;1.13;;
5339;SDS011;2692;48.848;8.924;2023-04-25T06:59:28;1.13;;;0.80;;
5339;SDS011;2692;48.848;8.924;2023-04-25T07:01:53;2.40;;;1.47;;
5339;SDS011;2692;48.848;8.924;2023-04-25T07:04:19;1.93;;;1.10;;
5339;SDS011;2692;48.848;8.924;2023-04-25T07:06:44;1.30;;;0.93;;
5339;SDS011;2692;48.848;8.924;2023-04-25T07:09:11;4.30;;;1.57;;
5339;SDS011;2692;48.848;8.924;2023-04-25T07:11:36;2.43;;;1.40;;
5339;SDS011;2692;48.848;8.924;2023-04-25T07:14:02;2.40;;;1.30;;
5339;SDS011;2692;48.848;8.924;2023-04-25T07:16:27;1.40;;;0.83;;
5339;SDS011;2692;48.848;8.924;2023-04-25T07:18:53;2.60;;;1.23;;
5339;SDS011;2692;48.848;8.924;2023-04-25T07:21:18;1.83;;;1.13;;
5339;SDS011;2692;48.848;8.924;2023-04-25T07:23:43;1.93;;;1.17;;
5339;SDS011;2692;48.848;8.924;2023-04-25T07:26:09;1.17;;;0.70;;
5339;SDS011;2692;48.848;8.924;2023-04-25T07:28:34;2.10;;;1.13;;
5339;SDS011;2692;48.848;8.924;2023-04-25T07:30:59;1.10;;;0.80;;
5339;SDS011;2692;48.848;8.924;2023-04-25T07:33:25;1.83;;;0.90;;
5339;SDS011;2692;48.848;8.924;2023-04-25T07:35:50;4.97;;;1.50;;
5339;SDS011;2692;48.848;8.924;2023-04-25T07:38:15;1.67;;;1.07;;
5339;SDS011;2692;48.848;8.924;2023-04-25T07:40:41;3.27;;;1.77;;
5339;SDS011;2692;48.848;8.924;2023-04-25T07:43:06;2.30;;;1.53;;
5339;SDS011;2692;48.848;8.924;2023-04-25T07:45:31;2.93;;;2.10;;
5339;SDS011;2692;48.848;8.924;2023-04-25T07:47:57;3.90;;;1.87;;
5339;SDS011;2692;48.848;8.924;2023-04-25T07:50:22;2.33;;;1.50;;
5339;SDS011;2692;48.848;8.924;2023-04-25T07:52:47;7.63;;;2.20;;
5339;SDS011;2692;48.848;8.924;2023-04-25T07:55:13;2.17;;;1.47;;
5339;SDS011;2692;48.848;8.924;2023-04-25T07:57:38;1.30;;;0.83;;
5339;SDS011;2692;48.848;8.924;2023-04-25T08:00:04;1.60;;;0.90;;
5339;SDS011;2692;48.848;8.924;2023-04-25T08:02:30;2.13;;;1.23;;
5339;SDS011;2692;48.848;8.924;2023-04-25T08:04:55;11.30;;;1.60;;
5339;SDS011;2692;48.848;8.924;2023-04-25T08:07:20;6.50;;;1.40;;
5339;SDS011;2692;48.848;8.924;2023-04-25T08:09:46;1.97;;;1.47;;
5339;SDS011;2692;48.848;8.924;2023-04-25T08:12:11;1.67;;;1.37;;
5339;SDS011;2692;48.848;8.924;2023-04-25T08:14:36;2.23;;;1.00;;
5339;SDS011;2692;48.848;8.924;2023-04-25T08:17:02;1.40;;;1.03;;
5339;SDS011;2692;48.848;8.924;2023-04-25T08:19:28;2.60;;;1.90;;
5339;SDS011;2692;48.848;8.924;2023-04-25T08:21:55;1.50;;;0.77;;
5339;SDS011;2692;48.848;8.924;2023-04-25T08:24:21;1.50;;;1.20;;
5339;SDS011;2692;48.848;8.924;2023-04-25T08:26:46;2.30;;;1.27;;
5339;SDS011;2692;48.848;8.924;2023-04-25T08:29:11;2.30;;;1.80;;
5339;SDS011;2692;48.848;8.924;2023-04-25T08:31:37;2.80;;;1.77;;
5339;SDS011;2692;48.848;8.924;2023-04-25T08:34:02;4.10;;;1.13;;
5339;SDS011;2692;48.848;8.924;2023-04-25T08:36:27;1.53;;;1.00;;
5339;SDS011;2692;48.848;8.924;2023-04-25T08:38:53;3.37;;;2.03;;
5339;SDS011;2692;48.848;8.924;2023-04-25T08:41:18;2.03;;;1.83;;
5339;SDS011;2692;48.848;8.924;2023-04-25T08:43:45;4.47;;;2.47;;
5339;SDS011;2692;48.848;8.924;2023-04-25T08:46:13;4.50;;;3.30;;
5339;SDS011;2692;48.848;8.924;2023-04-25T08:48:43;3.00;;;1.97;;
5339;SDS011;2692;48.848;8.924;2023-04-25T08:51:10;2.20;;;1.03;;
5339;SDS011;2692;48.848;8.924;2023-04-25T08:53:35;1.90;;;1.50;;
5339;SDS011;2692;48.848;8.924;2023-04-25T08:56:01;2.23;;;1.70;;
5339;SDS011;2692;48.848;8.924;2023-04-25T08:58:27;2.73;;;1.53;;
5339;SDS011;2692;48.848;8.924;2023-04-25T09:00:52;5.00;;;2.70;;
5339;SDS011;2692;48.848;8.924;2023-04-25T09:03:18;4.40;;;2.60;;
5339;SDS011;2692;48.848;8.924;2023-04-25T09:05:43;2.00;;;1.80;;
5339;SDS011;2692;48.848;8.924;2023-04-25T09:08:09;6.97;;;3.27;;
5339;SDS011;2692;48.848;8.924;2023-04-25T09:10:34;6.20;;;2.30;;
5339;SDS011;2692;48.848;8.924;2023-04-25T09:15:29;2.77;;;1.63;;
5339;SDS011;2692;48.848;8.924;2023-04-25T09:17:55;1.50;;;1.10;;
5339;SDS011;2692;48.848;8.924;2023-04-25T09:20:21;1.97;;;1.40;;
5339;SDS011;2692;48.848;8.924;2023-04-25T09:22:46;1.27;;;0.93;;
5339;SDS011;2692;48.848;8.924;2023-04-25T09:25:12;1.30;;;0.80;;
5339;SDS011;2692;48.848;8.924;2023-04-25T09:27:49;0.90;;;0.40;;
5339;SDS011;2692;48.848;8.924;2023-04-25T09:30:16;1.93;;;0.97;;
5339;SDS011;2692;48.848;8.924;2023-04-25T09:32:43;2.50;;;1.47;;
5339;SDS011;2692;48.848;8.924;2023-04-25T09:35:10;1.60;;;0.93;;
5339;SDS011;2692;48.848;8.924;2023-04-25T09:37:36;1.67;;;0.97;;
5339;SDS011;2692;48.848;8.924;2023-04-25T09:40:04;1.30;;;0.70;;
5339;SDS011;2692;48.848;8.924;2023-04-25T09:42:31;0.90;;;0.40;;
5339;SDS011;2692;48.848;8.924;2023-04-25T09:44:57;0.90;;;0.50;;
5339;SDS011;2692;48.848;8.924;2023-04-25T09:47:26;0.90;;;0.53;;
5339;SDS011;2692;48.848;8.924;2023-04-25T09:49:52;1.77;;;0.70;;
5339;SDS011;2692;48.848;8.924;2023-04-25T09:52:21;1.07;;;0.50;;
5339;SDS011;2692;48.848;8.924;2023-04-25T09:54:48;2.70;;;0.80;;
5339;SDS011;2692;48.848;8.924;2023-04-25T09:57:18;3.53;;;0.57;;
5339;SDS011;2692;48.848;8.924;2023-04-25T09:59:47;0.80;;;0.40;;
5339;SDS011;2692;48.848;8.924;2023-04-25T10:02:15;1.00;;;0.43;;
5339;SDS011;2692;48.848;8.924;2023-04-25T10:04:42;1.00;;;0.50;;
5339;SDS011;2692;48.848;8.924;2023-04-25T10:07:09;1.10;;;0.70;;
5339;SDS011;2692;48.848;8.924;2023-04-25T10:09:36;1.73;;;0.67;;
5339;SDS011;2692;48.848;8.924;2023-04-25T10:12:04;1.67;;;0.50;;
5339;SDS011;2692;48.848;8.924;2023-04-25T10:14:31;0.90;;;0.50;;
5339;SDS011;2692;48.848;8.924;2023-04-25T10:16:57;2.60;;;1.03;;
5339;SDS011;2692;48.848;8.924;2023-04-25T10:19:23;1.10;;;0.60;;
5339;SDS011;2692;48.848;8.924;2023-04-25T10:21:54;2.30;;;0.83;;
5339;SDS011;2692;48.848;8.924;2023-04-25T10:24:23;1.00;;;0.70;;
5339;SDS011;2692;48.848;8.924;2023-04-25T10:26:50;2.60;;;1.20;;
5339;SDS011;2692;48.848;8.924;2023-04-25T10:29:25;3.90;;;1.27;;
5339;SDS011;2692;48.848;8.924;2023-04-25T10:31:51;3.57;;;1.77;;
5339;SDS011;2692;48.848;8.924;2023-04-25T10:34:17;2.50;;;1.43;;
5339;SDS011;2692;48.848;8.924;2023-04-25T10:36:42;2.50;;;1.43;;
5339;SDS011;2692;48.848;8.924;2023-04-25T10:39:08;2.03;;;1.60;;
5339;SDS011;2692;48.848;8.924;2023-04-25T10:44:21;1.60;;;1.10;;
5339;SDS011;2692;48.848;8.924;2023-04-25T10:46:46;1.47;;;1.00;;
5339;SDS011;2692;48.848;8.924;2023-04-25T10:49:28;3.63;;;1.70;;
5339;SDS011;2692;48.848;8.924;2023-04-25T10:52:15;1.20;;;0.83;;
5339;SDS011;2692;48.848;8.924;2023-04-25T10:54:49;1.87;;;1.20;;
5339;SDS011;2692;48.848;8.924;2023-04-25T10:57:26;1.47;;;0.80;;
5339;SDS011;2692;48.848;8.924;2023-04-25T10:59:54;1.90;;;1.17;;
5339;SDS011;2692;48.848;8.924;2023-04-25T11:02:23;2.80;;;1.40;;
5339;SDS011;2692;48.848;8.924;2023-04-25T11:04:52;1.77;;;1.10;;
5339;SDS011;2692;48.848;8.924;2023-04-25T11:10:03;1.43;;;0.70;;
5339;SDS011;2692;48.848;8.924;2023-04-25T11:12:30;1.20;;;0.80;;
5339;SDS011;2692;48.848;8.924;2023-04-25T11:14:58;1.10;;;0.40;;
5339;SDS011;2692;48.848;8.924;2023-04-25T11:17:27;1.10;;;0.50;;
5339;SDS011;2692;48.848;8.924;2023-04-25T11:19:53;3.73;;;0.77;;
5339;SDS011;2692;48.848;8.924;2023-04-25T11:22:18;1.27;;;0.70;;
5339;SDS011;2692;48.848;8.924;2023-04-25T11:24:46;1.17;;;0.43;;
5339;SDS011;2692;48.848;8.924;2023-04-25T11:27:11;1.20;;;0.60;;
5339;SDS011;2692;48.848;8.924;2023-04-25T11:29:37;1.50;;;0.80;;
5339;SDS011;2692;48.848;8.924;2023-04-25T11:32:02;2.07;;;1.20;;
5339;SDS011;2692;48.848;8.924;2023-04-25T11:34:28;4.00;;;0.93;;
5339;SDS011;2692;48.848;8.924;2023-04-25T11:36:58;1.10;;;0.70;;
5339;SDS011;2692;48.848;8.924;2023-04-25T11:39:24;1.50;;;0.90;;
5339;SDS011;2692;48.848;8.924;2023-04-25T11:41:50;1.53;;;0.60;;
5339;SDS011;2692;48.848;8.924;2023-04-25T11:44:16;3.43;;;1.07;;
5339;SDS011;2692;48.848;8.924;2023-04-25T11:46:42;1.97;;;1.37;;
5339;SDS011;2692;48.848;8.924;2023-04-25T11:49:08;1.80;;;1.20;;
5339;SDS011;2692;48.848;8.924;2023-04-25T11:51:39;3.47;;;2.23;;
5339;SDS011;2692;48.848;8.924;2023-04-25T11:54:08;1.97;;;1.40;;
5339;SDS011;2692;48.848;8.924;2023-04-25T11:56:34;9.40;;;1.90;;
5339;SDS011;2692;48.848;8.924;2023-04-25T11:59:01;2.80;;;1.90;;
5339;SDS011;2692;48.848;8.924;2023-04-25T12:01:28;3.43;;;1.50;;
5339;SDS011;2692;48.848;8.924;2023-04-25T12:03:57;3.63;;;2.07;;
5339;SDS011;2692;48.848;8.924;2023-04-25T12:06:27;2.20;;;1.53;;
5339;SDS011;2692;48.848;8.924;2023-04-25T12:09:02;2.83;;;1.60;;
5339;SDS011;2692;48.848;8.924;2023-04-25T12:11:31;2.07;;;1.10;;
5339;SDS011;2692;48.848;8.924;2023-04-25T12:14:01;3.13;;;1.30;;
5339;SDS011;2692;48.848;8.924;2023-04-25T12:16:27;3.67;;;2.07;;
5339;SDS011;2692;48.848;8.924;2023-04-25T12:18:53;2.50;;;1.63;;
5339;SDS011;2692;48.848;8.924;2023-04-25T12:21:20;3.70;;;1.73;;
5339;SDS011;2692;48.848;8.924;2023-04-25T12:23:45;2.00;;;1.47;;
5339;SDS011;2692;48.848;8.924;2023-04-25T12:26:11;2.47;;;1.30;;
5339;SDS011;2692;48.848;8.924;2023-04-25T12:28:36;1.70;;;1.37;;
5339;SDS011;2692;48.848;8.924;2023-04-25T12:33:29;3.47;;;1.77;;
5339;SDS011;2692;48.848;8.924;2023-04-25T12:35:55;4.23;;;2.47;;
5339;SDS011;2692;48.848;8.924;2023-04-25T12:38:24;3.37;;;1.90;;
5339;SDS011;2692;48.848;8.924;2023-04-25T12:40:55;2.90;;;2.20;;
5339;SDS011;2692;48.848;8.924;2023-04-25T12:43:20;5.07;;;2.47;;
5339;SDS011;2692;48.848;8.924;2023-04-25T12:45:49;3.63;;;2.20;;
5339;SDS011;2692;48.848;8.924;2023-04-25T12:48:16;4.10;;;2.10;;
5339;SDS011;2692;48.848;8.924;2023-04-25T12:50:41;5.40;;;2.70;;
5339;SDS011;2692;48.848;8.924;2023-04-25T12:53:07;4.50;;;2.70;;
5339;SDS011;2692;48.848;8.924;2023-04-25T12:55:32;4.23;;;2.67;;
5339;SDS011;2692;48.848;8.924;2023-04-25T12:57:57;2.70;;;1.70;;
5339;SDS011;2692;48.848;8.924;2023-04-25T13:00:23;6.03;;;2.90;;
5339;SDS011;2692;48.848;8.924;2023-04-25T13:02:48;3.77;;;2.67;;
5339;SDS011;2692;48.848;8.924;2023-04-25T13:05:14;2.90;;;1.93;;
5339;SDS011;2692;48.848;8.924;2023-04-25T13:07:39;5.07;;;2.67;;
5339;SDS011;2692;48.848;8.924;2023-04-25T13:10:06;5.10;;;2.53;;
5339;SDS011;2692;48.848;8.924;2023-04-25T13:12:32;4.47;;;1.77;;
5339;SDS011;2692;48.848;8.924;2023-04-25T13:14:57;3.73;;;2.10;;
5339;SDS011;2692;48.848;8.924;2023-04-25T13:17:23;7.73;;;1.97;;
5339;SDS011;2692;48.848;8.924;2023-04-25T13:19:48;4.80;;;1.87;;
5339;SDS011;2692;48.848;8.924;2023-04-25T13:22:13;3.50;;;2.63;;
5339;SDS011;2692;48.848;8.924;2023-04-25T13:24:40;4.30;;;2.43;;
5339;SDS011;2692;48.848;8.924;2023-04-25T13:27:05;3.83;;;2.23;;
5339;SDS011;2692;48.848;8.924;2023-04-25T13:29:31;8.77;;;1.60;;
5339;SDS011;2692;48.848;8.924;2023-04-25T13:31:56;1.53;;;1.40;;
5339;SDS011;2692;48.848;8.924;2023-04-25T13:34:21;4.03;;;1.60;;
5339;SDS011;2692;48.848;8.924;2023-04-25T13:36:47;6.60;;;1.20;;
5339;SDS011;2692;48.848;8.924;2023-04-25T13:39:12;6.30;;;2.57;;
5339;SDS011;2692;48.848;8.924;2023-04-25T13:41:38;2.60;;;1.60;;
5339;SDS011;2692;48.848;8.924;2023-04-25T13:44:03;3.43;;;1.80;;
5339;SDS011;2692;48.848;8.924;2023-04-25T13:46:29;3.10;;;2.13;;
5339;SDS011;2692;48.848;8.924;2023-04-25T13:48:54;2.90;;;1.70;;
5339;SDS011;2692;48.848;8.924;2023-04-25T13:51:19;2.70;;;1.67;;
5339;SDS011;2692;48.848;8.924;2023-04-25T13:53:45;3.07;;;1.53;;
5339;SDS011;2692;48.848;8.924;2023-04-25T13:56:11;2.07;;;1.30;;
5339;SDS011;2692;48.848;8.924;2023-04-25T13:58:36;5.97;;;1.80;;
5339;SDS011;2692;48.848;8.924;2023-04-25T14:01:02;3.47;;;2.43;;
5339;SDS011;2692;48.848;8.924;2023-04-25T14:03:28;2.13;;;1.10;;
5339;SDS011;2692;48.848;8.924;2023-04-25T14:05:53;3.37;;;1.27;;
5339;SDS011;2692;48.848;8.924;2023-04-25T14:08:18;3.63;;;2.20;;
5339;SDS011;2692;48.848;8.924;2023-04-25T14:10:44;2.83;;;1.50;;
5339;SDS011;2692;48.848;8.924;2023-04-25T14:13:10;4.37;;;1.97;;
5339;SDS011;2692;48.848;8.924;2023-04-25T14:15:36;5.70;;;2.20;;
5339;SDS011;2692;48.848;8.924;2023-04-25T14:18:01;4.20;;;2.03;;
5339;SDS011;2692;48.848;8.924;2023-04-25T14:20:27;2.17;;;1.30;;
5339;SDS011;2692;48.848;8.924;2023-04-25T14:22:52;3.00;;;1.23;;
5339;SDS011;2692;48.848;8.924;2023-04-25T14:25:19;3.07;;;1.80;;
5339;SDS011;2692;48.848;8.924;2023-04-25T14:27:44;5.77;;;2.30;;
5339;SDS011;2692;48.848;8.924;2023-04-25T14:30:14;3.40;;;1.70;;
5339;SDS011;2692;48.848;8.924;2023-04-25T14:32:40;4.87;;;1.70;;
5339;SDS011;2692;48.848;8.924;2023-04-25T14:35:05;2.40;;;1.10;;
5339;SDS011;2692;48.848;8.924;2023-04-25T14:37:30;1.97;;;1.57;;
5339;SDS011;2692;48.848;8.924;2023-04-25T14:39:56;5.10;;;2.70;;
5339;SDS011;2692;48.848;8.924;2023-04-25T14:42:21;5.93;;;2.60;;
5339;SDS011;2692;48.848;8.924;2023-04-25T14:44:46;2.60;;;1.93;;
5339;SDS011;2692;48.848;8.924;2023-04-25T14:47:12;4.20;;;2.00;;
5339;SDS011;2692;48.848;8.924;2023-04-25T14:49:37;2.70;;;1.73;;
5339;SDS011;2692;48.848;8.924;2023-04-25T14:52:03;3.77;;;2.17;;
5339;SDS011;2692;48.848;8.924;2023-04-25T14:54:28;3.07;;;1.87;;
5339;SDS011;2692;48.848;8.924;2023-04-25T14:56:53;2.30;;;1.60;;
5339;SDS011;2692;48.848;8.924;2023-04-25T14:59:19;4.13;;;1.70;;
5339;SDS011;2692;48.848;8.924;2023-04-25T15:01:45;2.73;;;1.40;;
5339;SDS011;2692;48.848;8.924;2023-04-25T15:04:10;1.97;;;1.20;;
5339;SDS011;2692;48.848;8.924;2023-04-25T15:06:37;2.30;;;1.50;;
5339;SDS011;2692;48.848;8.924;2023-04-25T15:09:03;2.17;;;1.50;;
5339;SDS011;2692;48.848;8.924;2023-04-25T15:11:28;3.13;;;1.60;;
5339;SDS011;2692;48.848;8.924;2023-04-25T15:13:53;10.30;;;2.07;;
5339;SDS011;2692;48.848;8.924;2023-04-25T15:16:19;5.40;;;1.80;;
5339;SDS011;2692;48.848;8.924;2023-04-25T15:18:45;2.90;;;2.03;;